Terminal Aerodrome Forecast
Issued by NWS Duluth, MN

Home | Current Version | Previous Version | Text Only | Print | Product List | Glossary On
Versions: 1 2 3 4 5 6 7 8 9 10 11 12 13 14 15
997
FTUS43 KDLH 271947 AAB
TAFDLH
TAF AMD
KDLH 271947Z 2720/2818 05010G17KT P6SM -SHRA SCT030 OVC070
     FM280100 06005KT P6SM SCT070
     FM280700 06003KT 3SM BR SCT010
      TEMPO 2808/2812 3/4SM BR SCT005
     FM281200 07008KT P6SM SCT040=

USA.gov is the U.S. government's official web portal to all federal, state and local government web resources and services.